Mercs Jaffna — 4RBT — position and weather

sailwx.info

Track history (hours):
 
Tides and Currents Weather Stations Pressure Air Temp Water Temp Dewpoint Dewpoint Depression Visibility Wind Speed Wind Dir Waves Ship Positions

Mercs Jaffna

Last reported at 2018-Feb-22 20:29 UTC. Time now 2018-Feb-22 20:31 UTC.
Position N 54°23' E 018°43'.

Length 161 m; draft 10.9 m.

Type: Ship. MMSI: 417222333.

Date/timePositionNaut miles runAvg speedWind from/ knotsBaromVisibWave heightAir tempDewpointWater temp
2018-Feb-22 20:29N 54°23' E 018°43'0 0.0
2018-Feb-22 19:59N 54°23' E 018°43'0 0.0
2018-Feb-22 19:29N 54°23' E 018°43'0 0.0
2018-Feb-22 18:59N 54°23' E 018°43'0 0.0
2018-Feb-22 18:29N 54°23' E 018°43'0 0.0
2018-Feb-22 17:59N 54°23' E 018°43'0 0.0
2018-Feb-22 17:29N 54°23' E 018°43'0 0.0
2018-Feb-22 16:59N 54°23' E 018°43'0 0.0
2018-Feb-22 16:29N 54°23' E 018°43'0 0.0
2018-Feb-22 15:59N 54°23' E 018°43'0 0.0
2018-Feb-22 15:29N 54°23' E 018°43'0 0.0
2018-Feb-22 14:59N 54°23' E 018°43'0 0.0
2018-Feb-22 14:29N 54°23' E 018°43'0 0.0
2018-Feb-22 13:59N 54°23' E 018°43'0 0.1
2018-Feb-22 13:30N 54°23' E 018°43'3 5.0
2018-Feb-22 13:00N 54°25' E 018°47'2 3.7
2018-Feb-22 12:30N 54°26' E 018°50'3 5.1
2018-Feb-22 12:00N 54°26' E 018°54'713.9
2018-Feb-22 11:30N 54°32' E 019°01'714.7
2018-Feb-22 11:01N 54°39' E 019°03'815.2
2018-Feb-22 10:31N 54°47' E 019°02'815.4
2018-Feb-22 10:01N 54°54' E 019°05'815.7
2018-Feb-22 09:30N 55°02' E 019°06'815.9
2018-Feb-22 08:59N 55°10' E 019°07'28815.0
2018-Feb-21 13:48N 59°33' E 022°47'515.8
2018-Feb-21 13:30N 59°34' E 022°56'816.2
2018-Feb-21 13:00N 59°37' E 023°11'816.2
2018-Feb-21 12:30N 59°39' E 023°26'816.0
2018-Feb-21 12:00N 59°41' E 023°42'815.9
2018-Feb-21 11:30N 59°43' E 023°57'815.7
2018-Feb-21 11:00N 59°46' E 024°12'815.5
2018-Feb-21 10:30N 59°47' E 024°27'815.8
2018-Feb-21 10:00N 59°49' E 024°42'815.9
2018-Feb-21 09:31N 59°51' E 024°57'815.7
2018-Feb-21 09:00N 59°52' E 025°13'815.6
2018-Feb-21 08:30N 59°53' E 025°28'815.7
2018-Feb-21 08:00N 59°55' E 025°44'815.6
2018-Feb-21 07:30N 59°57' E 025°59'815.5
2018-Feb-21 07:00N 59°59' E 026°13'815.1
2018-Feb-21 06:30N 60°01' E 026°28'815.1
2018-Feb-21 06:00N 60°00' E 026°43'815.1
2018-Feb-21 05:31N 59°59' E 026°58'713.7
2018-Feb-21 05:00N 60°02' E 027°11'714.9
2018-Feb-21 04:30N 60°05' E 027°24'815.2
2018-Feb-21 04:00N 60°09' E 027°37'715.0
2018-Feb-21 03:30N 60°11' E 027°51'714.5
2018-Feb-21 03:00N 60°09' E 028°06'713.5
2018-Feb-21 02:30N 60°07' E 028°18'613.1
2018-Feb-21 02:01N 60°04' E 028°29'713.4
2018-Feb-21 01:31N 60°03' E 028°43'714.6
2018-Feb-21 01:01N 60°03' E 028°57'714.8
2018-Feb-21 00:30N 60°02' E 029°12'814.0
2018-Feb-20 23:55N 60°02' E 029°28'3 5.1
2018-Feb-20 23:25N 60°01' E 029°33'410.1
2018-Feb-20 23:00N 59°60' E 029°41'5 9.4
2018-Feb-20 22:30N 59°57' E 029°50'612.0
2018-Feb-20 22:00N 59°55' E 030°01'5 9.3
2018-Feb-20 21:30N 59°53' E 030°10'1 2.4
2018-Feb-20 21:00N 59°53' E 030°12'0 0.3
2018-Feb-20 20:31N 59°53' E 030°12'0 0.0
2018-Feb-20 19:58N 59°53' E 030°12'0 0.0
2018-Feb-20 19:28N 59°53' E 030°12'0 0.0
2018-Feb-20 18:58N 59°53' E 030°12'0 0.0
2018-Feb-20 18:28N 59°53' E 030°12'0 0.0
2018-Feb-20 17:58N 59°53' E 030°12'0 0.0
2018-Feb-20 17:25N 59°53' E 030°12'0 0.0
2018-Feb-20 16:55N 59°53' E 030°12'0 0.0
2018-Feb-20 16:28N 59°53' E 030°12'0 0.0
2018-Feb-20 15:58N 59°53' E 030°12'0 0.0
2018-Feb-20 15:28N 59°53' E 030°12'0 0.0
2018-Feb-20 14:55N 59°53' E 030°12'0 0.0
2018-Feb-20 14:28N 59°53' E 030°12'0 0.0
2018-Feb-20 13:58N 59°53' E 030°12'0 0.0
2018-Feb-20 13:25N 59°53' E 030°12'0 0.0
2018-Feb-20 12:58N 59°53' E 030°12'0 0.0
2018-Feb-20 12:28N 59°53' E 030°12'0 0.0
2018-Feb-20 11:46N 59°53' E 030°12'0 0.0
2018-Feb-20 11:28N 59°53' E 030°12'0 0.0
2018-Feb-20 10:55N 59°53' E 030°12'0 0.0
2018-Feb-20 10:25N 59°53' E 030°12'0 0.0
2018-Feb-20 09:58N 59°53' E 030°12'0 0.0
2018-Feb-20 09:28N 59°53' E 030°12'0 0.0
2018-Feb-20 08:55N 59°53' E 030°12'0 0.0
2018-Feb-20 08:28N 59°53' E 030°12'0 0.0
2018-Feb-20 07:58N 59°53' E 030°12'0 0.0
2018-Feb-20 07:28N 59°53' E 030°12'0 0.0
2018-Feb-20 06:58N 59°53' E 030°12'0 0.0
2018-Feb-20 06:28N 59°53' E 030°12'0 0.0
2018-Feb-20 05:58N 59°53' E 030°12'0 0.0
2018-Feb-20 05:28N 59°53' E 030°12'0 0.0
2018-Feb-20 04:58N 59°53' E 030°12'0 0.0
2018-Feb-20 04:28N 59°53' E 030°12'0 0.0
2018-Feb-20 03:55N 59°53' E 030°12'0 0.0
2018-Feb-20 03:30N 59°53' E 030°12'0 0.0
2018-Feb-20 02:59N 59°53' E 030°12'0 0.0
2018-Feb-20 02:29N 59°53' E 030°12'0 0.0
2018-Feb-20 01:59N 59°53' E 030°12'0 0.0
2018-Feb-20 01:26N 59°53' E 030°12'0 0.0
2018-Feb-20 00:59N 59°53' E 030°12'0 0.0
2018-Feb-20 00:29N 59°53' E 030°12'0 0.0
2018-Feb-19 23:59N 59°53' E 030°12'0 0.0
2018-Feb-19 23:29N 59°53' E 030°12'0 0.0
2018-Feb-19 22:59N 59°53' E 030°12'0 0.0
2018-Feb-19 22:29N 59°53' E 030°12'0 0.0
2018-Feb-19 21:59N 59°53' E 030°12'0 0.0
2018-Feb-19 21:30N 59°53' E 030°12'0 0.0
2018-Feb-19 21:00N 59°53' E 030°12'0 0.0
2018-Feb-19 20:30N 59°53' E 030°12'0 0.0
2018-Feb-19 20:00N 59°53' E 030°12'0 0.0
2018-Feb-19 19:27N 59°53' E 030°12'0 0.0
2018-Feb-19 19:00N 59°53' E 030°12'0 0.0
2018-Feb-19 18:30N 59°53' E 030°12'0 0.0
2018-Feb-19 18:00N 59°53' E 030°12'0 0.0
2018-Feb-19 17:30N 59°53' E 030°12'0 0.0
2018-Feb-19 16:57N 59°53' E 030°12'0 0.0
2018-Feb-19 16:30N 59°53' E 030°12'1 1.4
2018-Feb-19 16:00N 59°53' E 030°11'3 5.7
2018-Feb-19 15:31N 59°54' E 030°05'5 9.2
2018-Feb-19 15:00N 59°56' E 029°57'611.1
2018-Feb-19 14:31N 59°58' E 029°47'611.2
2018-Feb-19 13:59N 60°00' E 029°36'5 9.5
2018-Feb-19 13:30N 60°01' E 029°27'3 6.9
2018-Feb-19 13:00N 60°02' E 029°20'714.6
2018-Feb-19 12:30N 60°02' E 029°05'815.6
2018-Feb-19 12:00N 60°02' E 028°50'713.6
2018-Feb-19 11:30N 60°00' E 028°37'612.2
2018-Feb-19 11:00N 59°55' E 028°32'4 8.6
2018-Feb-19 10:30N 59°51' E 028°27'714.5
2018-Feb-19 10:00N 59°44' E 028°23'4 7.0
2018-Feb-19 09:30N 59°40' E 028°24'0 0.1
2018-Feb-19 09:00N 59°40' E 028°24'0 0.0
2018-Feb-19 08:18N 59°40' E 028°24'0 0.0
2018-Feb-19 08:00N 59°40' E 028°24'0 0.0
2018-Feb-19 07:30N 59°40' E 028°24'0 0.0
2018-Feb-19 07:00N 59°40' E 028°24'0 0.0
2018-Feb-19 06:30N 59°40' E 028°24'0 0.0
2018-Feb-19 06:00N 59°40' E 028°24'0 0.0
2018-Feb-19 05:30N 59°40' E 028°24'0 0.0
2018-Feb-19 04:51N 59°40' E 028°24'0 0.0
2018-Feb-19 04:21N 59°40' E 028°24'0 0.0
2018-Feb-19 03:54N 59°40' E 028°24'0 0.0
2018-Feb-19 03:24N 59°40' E 028°24'0 0.0
2018-Feb-19 02:54N 59°40' E 028°24'0 0.0
2018-Feb-19 02:21N 59°40' E 028°24'0 0.0
2018-Feb-19 01:54N 59°40' E 028°24'0 0.0
2018-Feb-19 01:27N 59°40' E 028°24'0 0.0
2018-Feb-19 00:57N 59°40' E 028°24'0 0.0
2018-Feb-19 00:27N 59°40' E 028°24'0 0.0
2018-Feb-18 23:57N 59°40' E 028°24'0 0.0
2018-Feb-18 23:27N 59°40' E 028°24'0 0.0
2018-Feb-18 22:57N 59°40' E 028°24'0 0.0
2018-Feb-18 22:30N 59°40' E 028°24'0 0.0
2018-Feb-18 22:00N 59°40' E 028°24'0 0.0
2018-Feb-18 21:30N 59°40' E 028°24'0 0.0
2018-Feb-18 21:01N 59°40' E 028°24'1 2.9
2018-Feb-18 20:31N 59°42' E 028°24'4 7.0
2018-Feb-18 20:00N 59°45' E 028°25'612.8
2018-Feb-18 19:30N 59°52' E 028°27'510.7
2018-Feb-18 19:00N 59°56' E 028°33'1 2.6
2018-Feb-18 18:31N 59°57' E 028°34'5 9.9
2018-Feb-18 18:00N 60°02' E 028°31'713.2
2018-Feb-18 17:30N 60°05' E 028°19'713.5
2018-Feb-18 17:01N 60°08' E 028°07'714.3
2018-Feb-18 16:31N 60°10' E 027°53'713.2
2018-Feb-18 16:01N 60°09' E 027°40'713.9
2018-Feb-18 15:30N 60°06' E 027°28'714.2
2018-Feb-18 15:00N 60°02' E 027°16'815.4
2018-Feb-18 14:30N 59°58' E 027°02'816.0
2018-Feb-18 14:01N 59°59' E 026°47'815.5
2018-Feb-18 13:30N 59°58' E 026°31'816.0
2018-Feb-18 13:01N 59°56' E 026°16'1716.0
2018-Feb-18 11:58N 59°52' E 025°44'916.1
2018-Feb-18 11:24N 59°50' E 025°26'616.1
2018-Feb-18 11:00N 59°49' E 025°14'815.9
2018-Feb-18 10:30N 59°48' E 024°58'815.9
2018-Feb-18 10:01N 59°46' E 024°43'815.9
2018-Feb-18 09:31N 59°44' E 024°27'816.0
2018-Feb-18 09:00N 59°43' E 024°12'815.8
2018-Feb-18 08:31N 59°40' E 023°57'815.8
2018-Feb-18 08:01N 59°38' E 023°42'816.1
2018-Feb-18 07:30N 59°35' E 023°28'816.1
2018-Feb-18 07:00N 59°32' E 023°12'916.4
2018-Feb-18 06:28N 59°30' E 022°56'29415.0
2018-Feb-17 10:54N 55°03' E 019°06'715.8
2018-Feb-17 10:29N 54°56' E 019°05'816.8
2018-Feb-17 10:00N 54°48' E 019°05'817.0
2018-Feb-17 09:30N 54°40' E 019°05'815.6
2018-Feb-17 09:00N 54°32' E 019°04'815.4
2018-Feb-17 08:30N 54°26' E 018°56'713.8
2018-Feb-17 08:00N 54°24' E 018°45'1 2.3
2018-Feb-17 07:29N 54°23' E 018°43'0 0.0
2018-Feb-17 06:59N 54°23' E 018°43'0 0.0
2018-Feb-17 06:29N 54°23' E 018°43'0 0.0
2018-Feb-17 05:59N 54°23' E 018°43'0 0.0
2018-Feb-17 05:30N 54°23' E 018°43'0 0.0
2018-Feb-17 04:58N 54°23' E 018°43'0 0.0
2018-Feb-17 04:25N 54°23' E 018°43'0 0.0
2018-Feb-17 03:58N 54°23' E 018°43'0 0.0
2018-Feb-17 03:28N 54°23' E 018°43'0 0.0
2018-Feb-17 02:58N 54°23' E 018°43'0 0.0
2018-Feb-17 02:28N 54°23' E 018°43'0 0.0
2018-Feb-17 01:58N 54°23' E 018°43'0 0.0
2018-Feb-17 01:22N 54°23' E 018°43'0 0.0
2018-Feb-17 00:58N 54°23' E 018°43'0 0.0
2018-Feb-17 00:28N 54°23' E 018°43'0 0.0
2018-Feb-16 23:58N 54°23' E 018°43'0 0.0
2018-Feb-16 23:28N 54°23' E 018°43'0 0.0
2018-Feb-16 22:58N 54°23' E 018°43'0 0.0
2018-Feb-16 22:28N 54°23' E 018°43'0 0.0
2018-Feb-16 21:58N 54°23' E 018°43'0 0.0
2018-Feb-16 21:28N 54°23' E 018°43'0 0.0
2018-Feb-16 20:55N 54°23' E 018°43'0 0.0
2018-Feb-16 20:28N 54°23' E 018°43'0 0.0
2018-Feb-16 19:55N 54°23' E 018°43'0 0.0
2018-Feb-16 19:28N 54°23' E 018°43'0 0.0
2018-Feb-16 18:58N 54°23' E 018°43'0 0.0
2018-Feb-16 18:28N 54°23' E 018°43'0 0.0
2018-Feb-16 17:58N 54°23' E 018°43'0 0.0
2018-Feb-16 17:28N 54°23' E 018°43'0 0.0
2018-Feb-16 16:58N 54°23' E 018°43'0 0.0
2018-Feb-16 16:25N 54°23' E 018°43'0 0.0
2018-Feb-16 15:58N 54°23' E 018°43'0 0.0
2018-Feb-16 15:28N 54°23' E 018°43'0 0.0
2018-Feb-16 14:58N 54°23' E 018°43'0 0.0
2018-Feb-16 14:28N 54°23' E 018°43'0 0.0
2018-Feb-16 13:58N 54°23' E 018°43'0 0.0
2018-Feb-16 13:28N 54°23' E 018°43'0 0.0
2018-Feb-16 12:58N 54°23' E 018°43'0 1.0
2018-Feb-16 12:30N 54°24' E 018°43'4 7.3
2018-Feb-16 12:01N 54°25' E 018°49'1 2.6
2018-Feb-16 11:30N 54°26' E 018°50'0 0.5
2018-Feb-16 10:59N 54°26' E 018°50'1 1.2
2018-Feb-16 10:30N 54°26' E 018°51'0 0.3
2018-Feb-16 10:00N 54°26' E 018°52'2 4.8
2018-Feb-16 09:30N 54°27' E 018°56'714.3
2018-Feb-16 09:00N 54°33' E 019°01'714.6
2018-Feb-16 08:30N 54°40' E 019°04'815.1
2018-Feb-16 08:00N 54°48' E 019°05'815.2
2018-Feb-16 07:30N 54°55' E 019°06'815.2
2018-Feb-16 06:58N 55°03' E 019°07'714.9
2018-Feb-16 06:30N 55°10' E 019°07'28914.8
2018-Feb-15 10:58N 59°33' E 022°49'816.2
2018-Feb-15 10:30N 59°35' E 023°03'816.3
2018-Feb-15 10:00N 59°37' E 023°19'816.5
2018-Feb-15 09:30N 59°40' E 023°34'816.7
2018-Feb-15 09:00N 59°41' E 023°50'816.4
2018-Feb-15 08:30N 59°44' E 024°06'816.8
2018-Feb-15 08:01N 59°46' E 024°22'816.7
2018-Feb-15 07:30N 59°48' E 024°38'816.5
2018-Feb-15 07:00N 59°50' E 024°54'815.9
2018-Feb-15 06:30N 59°51' E 025°10'816.2
2018-Feb-15 06:00N 59°53' E 025°26'816.5
2018-Feb-15 05:30N 59°54' E 025°42'1615.9
2018-Feb-15 04:32N 59°58' E 026°12'017.0
2018-Feb-15 04:30N 59°58' E 026°13'815.6
2018-Feb-15 04:00N 60°00' E 026°28'714.6
2018-Feb-15 03:30N 60°01' E 026°42'816.0
2018-Feb-15 03:00N 59°59' E 026°58'715.0
2018-Feb-15 02:30N 60°02' E 027°12'815.4
2018-Feb-15 02:01N 60°06' E 027°25'714.8
2018-Feb-15 01:30N 60°10' E 027°38'714.7
2018-Feb-15 01:01N 60°11' E 027°53'714.2
2018-Feb-15 00:31N 60°09' E 028°07'714.1
2018-Feb-15 00:00N 60°06' E 028°20'714.5
2018-Feb-14 23:31N 60°03' E 028°33'815.2
2018-Feb-14 23:00N 60°03' E 028°48'815.5
2018-Feb-14 22:30N 60°02' E 029°04'816.5
2018-Feb-14 22:00N 60°02' E 029°20'5 9.1
2018-Feb-14 21:30N 60°02' E 029°29'711.5
2018-Feb-14 20:54N 59°59' E 029°42'4 9.0
2018-Feb-14 20:30N 59°58' E 029°48'611.7
2018-Feb-14 20:00N 59°55' E 029°59'510.1
2018-Feb-14 19:30N 59°54' E 030°09'2 3.6
2018-Feb-14 18:59N 59°53' E 030°12'0 0.2
2018-Feb-14 18:30N 59°53' E 030°12'0 0.0
2018-Feb-14 17:59N 59°53' E 030°12'0 0.0
2018-Feb-14 17:30N 59°53' E 030°12'0 0.0
2018-Feb-14 17:00N 59°53' E 030°12'0 0.0
2018-Feb-14 16:30N 59°53' E 030°12'0 0.0
2018-Feb-14 16:00N 59°53' E 030°12'0 0.0
2018-Feb-14 15:30N 59°53' E 030°12'0 0.0
2018-Feb-14 15:00N 59°53' E 030°12'0 0.0
2018-Feb-14 14:30N 59°53' E 030°12'0 0.0
2018-Feb-14 14:00N 59°53' E 030°12'0 0.0
2018-Feb-14 13:30N 59°53' E 030°12'0 0.0
2018-Feb-14 13:00N 59°53' E 030°12'0 0.0
2018-Feb-14 12:30N 59°53' E 030°12'0 0.0
2018-Feb-14 12:00N 59°53' E 030°12'0 0.0
2018-Feb-14 11:30N 59°53' E 030°12'0 0.0
2018-Feb-14 10:57N 59°53' E 030°12'0 0.0
2018-Feb-14 10:27N 59°53' E 030°12'0 0.0
2018-Feb-14 10:00N 59°53' E 030°12'0 0.0
2018-Feb-14 09:30N 59°53' E 030°12'0 0.0
2018-Feb-14 09:00N 59°53' E 030°12'0 0.0
2018-Feb-14 08:30N 59°53' E 030°12'0 0.0
2018-Feb-14 08:00N 59°53' E 030°12'0 0.0
2018-Feb-14 07:30N 59°53' E 030°12'0 0.0
2018-Feb-14 06:47N 59°53' E 030°12'0 0.0
2018-Feb-14 06:08N 59°53' E 030°12'0 0.0
2018-Feb-14 05:57N 59°53' E 030°12'0 0.0
2018-Feb-14 05:30N 59°53' E 030°12'0 0.0
2018-Feb-14 05:00N 59°53' E 030°12'0 0.0
2018-Feb-14 04:26N 59°53' E 030°12'0 0.0
2018-Feb-14 03:57N 59°53' E 030°12'0 0.0
2018-Feb-14 03:30N 59°53' E 030°12'0 0.0
2018-Feb-14 03:00N 59°53' E 030°12'0 0.0
2018-Feb-14 02:27N 59°53' E 030°12'0 0.0
2018-Feb-14 01:56N 59°53' E 030°12'0 0.0
2018-Feb-14 01:29N 59°53' E 030°12'0 0.0
2018-Feb-14 00:57N 59°53' E 030°12'0 0.0
2018-Feb-14 00:30N 59°53' E 030°12'0 0.0
2018-Feb-13 23:58N 59°53' E 030°12'0 0.0
2018-Feb-13 23:28N 59°53' E 030°12'0 0.0
2018-Feb-13 22:55N 59°53' E 030°12'0 0.0
2018-Feb-13 22:28N 59°53' E 030°12'0 0.0
2018-Feb-13 21:59N 59°53' E 030°12'0 0.0
2018-Feb-13 21:30N 59°53' E 030°12'0 0.0
2018-Feb-13 21:00N 59°53' E 030°12'0 0.0
2018-Feb-13 20:27N 59°53' E 030°12'0 0.0
2018-Feb-13 20:00N 59°53' E 030°12'0 0.0
2018-Feb-13 19:30N 59°53' E 030°12'0 0.0
2018-Feb-13 18:57N 59°53' E 030°12'0 0.0
2018-Feb-13 18:30N 59°53' E 030°12'0 0.0
2018-Feb-13 18:00N 59°53' E 030°12'0 0.0
2018-Feb-13 17:30N 59°53' E 030°12'0 0.0
2018-Feb-13 17:00N 59°53' E 030°12'0 0.0
2018-Feb-13 16:27N 59°53' E 030°12'0 0.0
2018-Feb-13 16:00N 59°53' E 030°12'0 0.0
2018-Feb-13 15:30N 59°53' E 030°12'0 0.0
2018-Feb-13 15:00N 59°53' E 030°12'0 0.0
2018-Feb-13 14:27N 59°53' E 030°12'0 0.0
2018-Feb-13 14:00N 59°53' E 030°12'0 0.0
2018-Feb-13 13:30N 59°53' E 030°12'0 0.0
2018-Feb-13 13:00N 59°53' E 030°12'0 0.0
2018-Feb-13 12:30N 59°53' E 030°12'0 0.0
2018-Feb-13 12:00N 59°53' E 030°12'0 0.0
2018-Feb-13 11:30N 59°53' E 030°12'0 0.0
2018-Feb-13 11:00N 59°53' E 030°12'0 0.0
2018-Feb-13 10:30N 59°53' E 030°12'0 0.0
2018-Feb-13 10:00N 59°53' E 030°12'0 0.0
2018-Feb-13 09:30N 59°53' E 030°12'0 0.0
2018-Feb-13 09:00N 59°53' E 030°12'0 0.0
2018-Feb-13 08:30N 59°53' E 030°12'0 0.0
2018-Feb-13 08:00N 59°53' E 030°12'0 0.0
2018-Feb-13 07:30N 59°53' E 030°12'0 0.0
2018-Feb-13 07:00N 59°53' E 030°12'0 0.0
2018-Feb-13 06:30N 59°53' E 030°12'0 0.0
2018-Feb-13 06:00N 59°53' E 030°12'0 0.0
2018-Feb-13 05:30N 59°53' E 030°12'0 0.0
2018-Feb-13 05:00N 59°53' E 030°12'0 0.0
2018-Feb-13 04:30N 59°53' E 030°12'0 0.0
2018-Feb-13 04:00N 59°53' E 030°12'0 0.2
2018-Feb-13 03:30N 59°53' E 030°12'2 3.9
2018-Feb-13 03:00N 59°54' E 030°08'4 9.0
2018-Feb-13 02:30N 59°55' E 030°00'611.5
2018-Feb-13 02:01N 59°57' E 029°49'5 9.9
2018-Feb-13 01:28N 59°60' E 029°40'612.4
2018-Feb-13 01:00N 60°01' E 029°29'5 9.1
2018-Feb-13 00:30N 60°02' E 029°20'5 9.2
2018-Feb-13 00:00N 60°02' E 029°10'4 7.2
2018-Feb-12 23:30N 60°02' E 029°03'713.6
2018-Feb-12 23:01N 60°02' E 028°50'815.5
2018-Feb-12 22:30N 60°03' E 028°34'714.2
2018-Feb-12 22:01N 60°05' E 028°21'714.3
2018-Feb-12 21:30N 60°08' E 028°08'714.8
2018-Feb-12 21:01N 60°10' E 027°54'714.6
2018-Feb-12 20:31N 60°09' E 027°39'816.0
2018-Feb-12 20:00N 60°06' E 027°25'  
Track history (hours):
 
Tides and Currents Weather Stations Pressure Air Temp Water Temp Dewpoint Dewpoint Depression Visibility Wind Speed Wind Dir Waves Ship Positions

Mercs Jaffna

Last reported at 2018-Feb-22 20:29 UTC. Time now 2018-Feb-22 20:31 UTC.
Position N 54°23' E 018°43'.

Length 161 m; draft 10.9 m.

Type: Ship. MMSI: 417222333.

Date/timePositionNaut miles runAvg speedWind from/ knotsBaromVisibWave heightAir tempDewpointWater temp
2018-Feb-22 20:29N 54°23' E 018°43'0 0.0
2018-Feb-22 19:59N 54°23' E 018°43'0 0.0
2018-Feb-22 19:29N 54°23' E 018°43'0 0.0
2018-Feb-22 18:59N 54°23' E 018°43'0 0.0
2018-Feb-22 18:29N 54°23' E 018°43'0 0.0
2018-Feb-22 17:59N 54°23' E 018°43'0 0.0
2018-Feb-22 17:29N 54°23' E 018°43'0 0.0
2018-Feb-22 16:59N 54°23' E 018°43'0 0.0
2018-Feb-22 16:29N 54°23' E 018°43'0 0.0
2018-Feb-22 15:59N 54°23' E 018°43'0 0.0
2018-Feb-22 15:29N 54°23' E 018°43'0 0.0
2018-Feb-22 14:59N 54°23' E 018°43'0 0.0
2018-Feb-22 14:29N 54°23' E 018°43'0 0.0
2018-Feb-22 13:59N 54°23' E 018°43'0 0.1
2018-Feb-22 13:30N 54°23' E 018°43'3 5.0
2018-Feb-22 13:00N 54°25' E 018°47'2 3.7
2018-Feb-22 12:30N 54°26' E 018°50'3 5.1
2018-Feb-22 12:00N 54°26' E 018°54'713.9
2018-Feb-22 11:30N 54°32' E 019°01'714.7
2018-Feb-22 11:01N 54°39' E 019°03'815.2
2018-Feb-22 10:31N 54°47' E 019°02'815.4
2018-Feb-22 10:01N 54°54' E 019°05'815.7
2018-Feb-22 09:30N 55°02' E 019°06'815.9
2018-Feb-22 08:59N 55°10' E 019°07'28815.0
2018-Feb-21 13:48N 59°33' E 022°47'515.8
2018-Feb-21 13:30N 59°34' E 022°56'816.2
2018-Feb-21 13:00N 59°37' E 023°11'816.2
2018-Feb-21 12:30N 59°39' E 023°26'816.0
2018-Feb-21 12:00N 59°41' E 023°42'815.9
2018-Feb-21 11:30N 59°43' E 023°57'815.7
2018-Feb-21 11:00N 59°46' E 024°12'815.5
2018-Feb-21 10:30N 59°47' E 024°27'815.8
2018-Feb-21 10:00N 59°49' E 024°42'815.9
2018-Feb-21 09:31N 59°51' E 024°57'815.7
2018-Feb-21 09:00N 59°52' E 025°13'815.6
2018-Feb-21 08:30N 59°53' E 025°28'815.7
2018-Feb-21 08:00N 59°55' E 025°44'815.6
2018-Feb-21 07:30N 59°57' E 025°59'815.5
2018-Feb-21 07:00N 59°59' E 026°13'815.1
2018-Feb-21 06:30N 60°01' E 026°28'815.1
2018-Feb-21 06:00N 60°00' E 026°43'815.1
2018-Feb-21 05:31N 59°59' E 026°58'713.7
2018-Feb-21 05:00N 60°02' E 027°11'714.9
2018-Feb-21 04:30N 60°05' E 027°24'815.2
2018-Feb-21 04:00N 60°09' E 027°37'715.0
2018-Feb-21 03:30N 60°11' E 027°51'714.5
2018-Feb-21 03:00N 60°09' E 028°06'713.5
2018-Feb-21 02:30N 60°07' E 028°18'613.1
2018-Feb-21 02:01N 60°04' E 028°29'713.4
2018-Feb-21 01:31N 60°03' E 028°43'714.6
2018-Feb-21 01:01N 60°03' E 028°57'714.8
2018-Feb-21 00:30N 60°02' E 029°12'814.0
2018-Feb-20 23:55N 60°02' E 029°28'3 5.1
2018-Feb-20 23:25N 60°01' E 029°33'410.1
2018-Feb-20 23:00N 59°60' E 029°41'5 9.4
2018-Feb-20 22:30N 59°57' E 029°50'612.0
2018-Feb-20 22:00N 59°55' E 030°01'5 9.3
2018-Feb-20 21:30N 59°53' E 030°10'1 2.4
2018-Feb-20 21:00N 59°53' E 030°12'0 0.3
2018-Feb-20 20:31N 59°53' E 030°12'0 0.0
2018-Feb-20 19:58N 59°53' E 030°12'0 0.0
2018-Feb-20 19:28N 59°53' E 030°12'0 0.0
2018-Feb-20 18:58N 59°53' E 030°12'0 0.0
2018-Feb-20 18:28N 59°53' E 030°12'0 0.0
2018-Feb-20 17:58N 59°53' E 030°12'0 0.0
2018-Feb-20 17:25N 59°53' E 030°12'0 0.0
2018-Feb-20 16:55N 59°53' E 030°12'0 0.0
2018-Feb-20 16:28N 59°53' E 030°12'0 0.0
2018-Feb-20 15:58N 59°53' E 030°12'0 0.0
2018-Feb-20 15:28N 59°53' E 030°12'0 0.0
2018-Feb-20 14:55N 59°53' E 030°12'0 0.0
2018-Feb-20 14:28N 59°53' E 030°12'0 0.0
2018-Feb-20 13:58N 59°53' E 030°12'0 0.0
2018-Feb-20 13:25N 59°53' E 030°12'0 0.0
2018-Feb-20 12:58N 59°53' E 030°12'0 0.0
2018-Feb-20 12:28N 59°53' E 030°12'0 0.0
2018-Feb-20 11:46N 59°53' E 030°12'0 0.0
2018-Feb-20 11:28N 59°53' E 030°12'0 0.0
2018-Feb-20 10:55N 59°53' E 030°12'0 0.0
2018-Feb-20 10:25N 59°53' E 030°12'0 0.0
2018-Feb-20 09:58N 59°53' E 030°12'0 0.0
2018-Feb-20 09:28N 59°53' E 030°12'0 0.0
2018-Feb-20 08:55N 59°53' E 030°12'0 0.0
2018-Feb-20 08:28N 59°53' E 030°12'0 0.0
2018-Feb-20 07:58N 59°53' E 030°12'0 0.0
2018-Feb-20 07:28N 59°53' E 030°12'0 0.0
2018-Feb-20 06:58N 59°53' E 030°12'0 0.0
2018-Feb-20 06:28N 59°53' E 030°12'0 0.0
2018-Feb-20 05:58N 59°53' E 030°12'0 0.0
2018-Feb-20 05:28N 59°53' E 030°12'0 0.0
2018-Feb-20 04:58N 59°53' E 030°12'0 0.0
2018-Feb-20 04:28N 59°53' E 030°12'0 0.0
2018-Feb-20 03:55N 59°53' E 030°12'0 0.0
2018-Feb-20 03:30N 59°53' E 030°12'0 0.0
2018-Feb-20 02:59N 59°53' E 030°12'0 0.0
2018-Feb-20 02:29N 59°53' E 030°12'0 0.0
2018-Feb-20 01:59N 59°53' E 030°12'0 0.0
2018-Feb-20 01:26N 59°53' E 030°12'0 0.0
2018-Feb-20 00:59N 59°53' E 030°12'0 0.0
2018-Feb-20 00:29N 59°53' E 030°12'0 0.0
2018-Feb-19 23:59N 59°53' E 030°12'0 0.0
2018-Feb-19 23:29N 59°53' E 030°12'0 0.0
2018-Feb-19 22:59N 59°53' E 030°12'0 0.0
2018-Feb-19 22:29N 59°53' E 030°12'0 0.0
2018-Feb-19 21:59N 59°53' E 030°12'0 0.0
2018-Feb-19 21:30N 59°53' E 030°12'0 0.0
2018-Feb-19 21:00N 59°53' E 030°12'0 0.0
2018-Feb-19 20:30N 59°53' E 030°12'0 0.0
2018-Feb-19 20:00N 59°53' E 030°12'0 0.0
2018-Feb-19 19:27N 59°53' E 030°12'0 0.0
2018-Feb-19 19:00N 59°53' E 030°12'0 0.0
2018-Feb-19 18:30N 59°53' E 030°12'0 0.0
2018-Feb-19 18:00N 59°53' E 030°12'0 0.0
2018-Feb-19 17:30N 59°53' E 030°12'0 0.0
2018-Feb-19 16:57N 59°53' E 030°12'0 0.0
2018-Feb-19 16:30N 59°53' E 030°12'1 1.4
2018-Feb-19 16:00N 59°53' E 030°11'3 5.7
2018-Feb-19 15:31N 59°54' E 030°05'5 9.2
2018-Feb-19 15:00N 59°56' E 029°57'611.1
2018-Feb-19 14:31N 59°58' E 029°47'611.2
2018-Feb-19 13:59N 60°00' E 029°36'5 9.5
2018-Feb-19 13:30N 60°01' E 029°27'3 6.9
2018-Feb-19 13:00N 60°02' E 029°20'714.6
2018-Feb-19 12:30N 60°02' E 029°05'815.6
2018-Feb-19 12:00N 60°02' E 028°50'713.6
2018-Feb-19 11:30N 60°00' E 028°37'612.2
2018-Feb-19 11:00N 59°55' E 028°32'4 8.6
2018-Feb-19 10:30N 59°51' E 028°27'714.5
2018-Feb-19 10:00N 59°44' E 028°23'4 7.0
2018-Feb-19 09:30N 59°40' E 028°24'0 0.1
2018-Feb-19 09:00N 59°40' E 028°24'0 0.0
2018-Feb-19 08:18N 59°40' E 028°24'0 0.0
2018-Feb-19 08:00N 59°40' E 028°24'0 0.0
2018-Feb-19 07:30N 59°40' E 028°24'0 0.0
2018-Feb-19 07:00N 59°40' E 028°24'0 0.0
2018-Feb-19 06:30N 59°40' E 028°24'0 0.0
2018-Feb-19 06:00N 59°40' E 028°24'0 0.0
2018-Feb-19 05:30N 59°40' E 028°24'0 0.0
2018-Feb-19 04:51N 59°40' E 028°24'0 0.0
2018-Feb-19 04:21N 59°40' E 028°24'0 0.0
2018-Feb-19 03:54N 59°40' E 028°24'0 0.0
2018-Feb-19 03:24N 59°40' E 028°24'0 0.0
2018-Feb-19 02:54N 59°40' E 028°24'0 0.0
2018-Feb-19 02:21N 59°40' E 028°24'0 0.0
2018-Feb-19 01:54N 59°40' E 028°24'0 0.0
2018-Feb-19 01:27N 59°40' E 028°24'0 0.0
2018-Feb-19 00:57N 59°40' E 028°24'0 0.0
2018-Feb-19 00:27N 59°40' E 028°24'0 0.0
2018-Feb-18 23:57N 59°40' E 028°24'0 0.0
2018-Feb-18 23:27N 59°40' E 028°24'0 0.0
2018-Feb-18 22:57N 59°40' E 028°24'0 0.0
2018-Feb-18 22:30N 59°40' E 028°24'0 0.0
2018-Feb-18 22:00N 59°40' E 028°24'0 0.0
2018-Feb-18 21:30N 59°40' E 028°24'0 0.0
2018-Feb-18 21:01N 59°40' E 028°24'1 2.9
2018-Feb-18 20:31N 59°42' E 028°24'4 7.0
2018-Feb-18 20:00N 59°45' E 028°25'612.8
2018-Feb-18 19:30N 59°52' E 028°27'510.7
2018-Feb-18 19:00N 59°56' E 028°33'1 2.6
2018-Feb-18 18:31N 59°57' E 028°34'5 9.9
2018-Feb-18 18:00N 60°02' E 028°31'713.2
2018-Feb-18 17:30N 60°05' E 028°19'713.5
2018-Feb-18 17:01N 60°08' E 028°07'714.3
2018-Feb-18 16:31N 60°10' E 027°53'713.2
2018-Feb-18 16:01N 60°09' E 027°40'713.9
2018-Feb-18 15:30N 60°06' E 027°28'714.2
2018-Feb-18 15:00N 60°02' E 027°16'815.4
2018-Feb-18 14:30N 59°58' E 027°02'816.0
2018-Feb-18 14:01N 59°59' E 026°47'815.5
2018-Feb-18 13:30N 59°58' E 026°31'816.0
2018-Feb-18 13:01N 59°56' E 026°16'1716.0
2018-Feb-18 11:58N 59°52' E 025°44'916.1
2018-Feb-18 11:24N 59°50' E 025°26'616.1
2018-Feb-18 11:00N 59°49' E 025°14'815.9
2018-Feb-18 10:30N 59°48' E 024°58'815.9
2018-Feb-18 10:01N 59°46' E 024°43'815.9
2018-Feb-18 09:31N 59°44' E 024°27'816.0
2018-Feb-18 09:00N 59°43' E 024°12'815.8
2018-Feb-18 08:31N 59°40' E 023°57'815.8
2018-Feb-18 08:01N 59°38' E 023°42'816.1
2018-Feb-18 07:30N 59°35' E 023°28'816.1
2018-Feb-18 07:00N 59°32' E 023°12'916.4
2018-Feb-18 06:28N 59°30' E 022°56'29415.0
2018-Feb-17 10:54N 55°03' E 019°06'715.8
2018-Feb-17 10:29N 54°56' E 019°05'816.8
2018-Feb-17 10:00N 54°48' E 019°05'817.0
2018-Feb-17 09:30N 54°40' E 019°05'815.6
2018-Feb-17 09:00N 54°32' E 019°04'815.4
2018-Feb-17 08:30N 54°26' E 018°56'713.8
2018-Feb-17 08:00N 54°24' E 018°45'1 2.3
2018-Feb-17 07:29N 54°23' E 018°43'0 0.0
2018-Feb-17 06:59N 54°23' E 018°43'0 0.0
2018-Feb-17 06:29N 54°23' E 018°43'0 0.0
2018-Feb-17 05:59N 54°23' E 018°43'0 0.0
2018-Feb-17 05:30N 54°23' E 018°43'0 0.0
2018-Feb-17 04:58N 54°23' E 018°43'0 0.0
2018-Feb-17 04:25N 54°23' E 018°43'0 0.0
2018-Feb-17 03:58N 54°23' E 018°43'0 0.0
2018-Feb-17 03:28N 54°23' E 018°43'0 0.0
2018-Feb-17 02:58N 54°23' E 018°43'0 0.0
2018-Feb-17 02:28N 54°23' E 018°43'0 0.0
2018-Feb-17 01:58N 54°23' E 018°43'0 0.0
2018-Feb-17 01:22N 54°23' E 018°43'0 0.0
2018-Feb-17 00:58N 54°23' E 018°43'0 0.0
2018-Feb-17 00:28N 54°23' E 018°43'0 0.0
2018-Feb-16 23:58N 54°23' E 018°43'0 0.0
2018-Feb-16 23:28N 54°23' E 018°43'0 0.0
2018-Feb-16 22:58N 54°23' E 018°43'0 0.0
2018-Feb-16 22:28N 54°23' E 018°43'0 0.0
2018-Feb-16 21:58N 54°23' E 018°43'0 0.0
2018-Feb-16 21:28N 54°23' E 018°43'0 0.0
2018-Feb-16 20:55N 54°23' E 018°43'0 0.0
2018-Feb-16 20:28N 54°23' E 018°43'0 0.0
2018-Feb-16 19:55N 54°23' E 018°43'0 0.0
2018-Feb-16 19:28N 54°23' E 018°43'0 0.0
2018-Feb-16 18:58N 54°23' E 018°43'0 0.0
2018-Feb-16 18:28N 54°23' E 018°43'0 0.0
2018-Feb-16 17:58N 54°23' E 018°43'0 0.0
2018-Feb-16 17:28N 54°23' E 018°43'0 0.0
2018-Feb-16 16:58N 54°23' E 018°43'0 0.0
2018-Feb-16 16:25N 54°23' E 018°43'0 0.0
2018-Feb-16 15:58N 54°23' E 018°43'0 0.0
2018-Feb-16 15:28N 54°23' E 018°43'0 0.0
2018-Feb-16 14:58N 54°23' E 018°43'0 0.0
2018-Feb-16 14:28N 54°23' E 018°43'0 0.0
2018-Feb-16 13:58N 54°23' E 018°43'0 0.0
2018-Feb-16 13:28N 54°23' E 018°43'0 0.0
2018-Feb-16 12:58N 54°23' E 018°43'0 1.0
2018-Feb-16 12:30N 54°24' E 018°43'4 7.3
2018-Feb-16 12:01N 54°25' E 018°49'1 2.6
2018-Feb-16 11:30N 54°26' E 018°50'0 0.5
2018-Feb-16 10:59N 54°26' E 018°50'1 1.2
2018-Feb-16 10:30N 54°26' E 018°51'0 0.3
2018-Feb-16 10:00N 54°26' E 018°52'2 4.8
2018-Feb-16 09:30N 54°27' E 018°56'714.3
2018-Feb-16 09:00N 54°33' E 019°01'714.6
2018-Feb-16 08:30N 54°40' E 019°04'815.1
2018-Feb-16 08:00N 54°48' E 019°05'815.2
2018-Feb-16 07:30N 54°55' E 019°06'815.2
2018-Feb-16 06:58N 55°03' E 019°07'714.9
2018-Feb-16 06:30N 55°10' E 019°07'28914.8
2018-Feb-15 10:58N 59°33' E 022°49'816.2
2018-Feb-15 10:30N 59°35' E 023°03'816.3
2018-Feb-15 10:00N 59°37' E 023°19'816.5
2018-Feb-15 09:30N 59°40' E 023°34'816.7
2018-Feb-15 09:00N 59°41' E 023°50'816.4
2018-Feb-15 08:30N 59°44' E 024°06'816.8
2018-Feb-15 08:01N 59°46' E 024°22'816.7
2018-Feb-15 07:30N 59°48' E 024°38'816.5
2018-Feb-15 07:00N 59°50' E 024°54'815.9
2018-Feb-15 06:30N 59°51' E 025°10'816.2
2018-Feb-15 06:00N 59°53' E 025°26'816.5
2018-Feb-15 05:30N 59°54' E 025°42'1615.9
2018-Feb-15 04:32N 59°58' E 026°12'017.0
2018-Feb-15 04:30N 59°58' E 026°13'815.6
2018-Feb-15 04:00N 60°00' E 026°28'714.6
2018-Feb-15 03:30N 60°01' E 026°42'816.0
2018-Feb-15 03:00N 59°59' E 026°58'715.0
2018-Feb-15 02:30N 60°02' E 027°12'815.4
2018-Feb-15 02:01N 60°06' E 027°25'714.8
2018-Feb-15 01:30N 60°10' E 027°38'714.7
2018-Feb-15 01:01N 60°11' E 027°53'714.2
2018-Feb-15 00:31N 60°09' E 028°07'714.1
2018-Feb-15 00:00N 60°06' E 028°20'714.5
2018-Feb-14 23:31N 60°03' E 028°33'815.2
2018-Feb-14 23:00N 60°03' E 028°48'815.5
2018-Feb-14 22:30N 60°02' E 029°04'816.5
2018-Feb-14 22:00N 60°02' E 029°20'5 9.1
2018-Feb-14 21:30N 60°02' E 029°29'711.5
2018-Feb-14 20:54N 59°59' E 029°42'4 9.0
2018-Feb-14 20:30N 59°58' E 029°48'611.7
2018-Feb-14 20:00N 59°55' E 029°59'510.1
2018-Feb-14 19:30N 59°54' E 030°09'2 3.6
2018-Feb-14 18:59N 59°53' E 030°12'0 0.2
2018-Feb-14 18:30N 59°53' E 030°12'0 0.0
2018-Feb-14 17:59N 59°53' E 030°12'0 0.0
2018-Feb-14 17:30N 59°53' E 030°12'0 0.0
2018-Feb-14 17:00N 59°53' E 030°12'0 0.0
2018-Feb-14 16:30N 59°53' E 030°12'0 0.0
2018-Feb-14 16:00N 59°53' E 030°12'0 0.0
2018-Feb-14 15:30N 59°53' E 030°12'0 0.0
2018-Feb-14 15:00N 59°53' E 030°12'0 0.0
2018-Feb-14 14:30N 59°53' E 030°12'0 0.0
2018-Feb-14 14:00N 59°53' E 030°12'0 0.0
2018-Feb-14 13:30N 59°53' E 030°12'0 0.0
2018-Feb-14 13:00N 59°53' E 030°12'0 0.0
2018-Feb-14 12:30N 59°53' E 030°12'0 0.0
2018-Feb-14 12:00N 59°53' E 030°12'0 0.0
2018-Feb-14 11:30N 59°53' E 030°12'0 0.0
2018-Feb-14 10:57N 59°53' E 030°12'0 0.0
2018-Feb-14 10:27N 59°53' E 030°12'0 0.0
2018-Feb-14 10:00N 59°53' E 030°12'0 0.0
2018-Feb-14 09:30N 59°53' E 030°12'0 0.0
2018-Feb-14 09:00N 59°53' E 030°12'0 0.0
2018-Feb-14 08:30N 59°53' E 030°12'0 0.0
2018-Feb-14 08:00N 59°53' E 030°12'0 0.0
2018-Feb-14 07:30N 59°53' E 030°12'0 0.0
2018-Feb-14 06:47N 59°53' E 030°12'0 0.0
2018-Feb-14 06:08N 59°53' E 030°12'0 0.0
2018-Feb-14 05:57N 59°53' E 030°12'0 0.0
2018-Feb-14 05:30N 59°53' E 030°12'0 0.0
2018-Feb-14 05:00N 59°53' E 030°12'0 0.0
2018-Feb-14 04:26N 59°53' E 030°12'0 0.0
2018-Feb-14 03:57N 59°53' E 030°12'0 0.0
2018-Feb-14 03:30N 59°53' E 030°12'0 0.0
2018-Feb-14 03:00N 59°53' E 030°12'0 0.0
2018-Feb-14 02:27N 59°53' E 030°12'0 0.0
2018-Feb-14 01:56N 59°53' E 030°12'0 0.0
2018-Feb-14 01:29N 59°53' E 030°12'0 0.0
2018-Feb-14 00:57N 59°53' E 030°12'0 0.0
2018-Feb-14 00:30N 59°53' E 030°12'0 0.0
2018-Feb-13 23:58N 59°53' E 030°12'0 0.0
2018-Feb-13 23:28N 59°53' E 030°12'0 0.0
2018-Feb-13 22:55N 59°53' E 030°12'0 0.0
2018-Feb-13 22:28N 59°53' E 030°12'0 0.0
2018-Feb-13 21:59N 59°53' E 030°12'0 0.0
2018-Feb-13 21:30N 59°53' E 030°12'0 0.0
2018-Feb-13 21:00N 59°53' E 030°12'0 0.0
2018-Feb-13 20:27N 59°53' E 030°12'0 0.0
2018-Feb-13 20:00N 59°53' E 030°12'0 0.0
2018-Feb-13 19:30N 59°53' E 030°12'0 0.0
2018-Feb-13 18:57N 59°53' E 030°12'0 0.0
2018-Feb-13 18:30N 59°53' E 030°12'0 0.0
2018-Feb-13 18:00N 59°53' E 030°12'0 0.0
2018-Feb-13 17:30N 59°53' E 030°12'0 0.0
2018-Feb-13 17:00N 59°53' E 030°12'0 0.0
2018-Feb-13 16:27N 59°53' E 030°12'0 0.0
2018-Feb-13 16:00N 59°53' E 030°12'0 0.0
2018-Feb-13 15:30N 59°53' E 030°12'0 0.0
2018-Feb-13 15:00N 59°53' E 030°12'0 0.0
2018-Feb-13 14:27N 59°53' E 030°12'0 0.0
2018-Feb-13 14:00N 59°53' E 030°12'0 0.0
2018-Feb-13 13:30N 59°53' E 030°12'0 0.0
2018-Feb-13 13:00N 59°53' E 030°12'0 0.0
2018-Feb-13 12:30N 59°53' E 030°12'0 0.0
2018-Feb-13 12:00N 59°53' E 030°12'0 0.0
2018-Feb-13 11:30N 59°53' E 030°12'0 0.0
2018-Feb-13 11:00N 59°53' E 030°12'0 0.0
2018-Feb-13 10:30N 59°53' E 030°12'0 0.0
2018-Feb-13 10:00N 59°53' E 030°12'0 0.0
2018-Feb-13 09:30N 59°53' E 030°12'0 0.0
2018-Feb-13 09:00N 59°53' E 030°12'0 0.0
2018-Feb-13 08:30N 59°53' E 030°12'0 0.0
2018-Feb-13 08:00N 59°53' E 030°12'0 0.0
2018-Feb-13 07:30N 59°53' E 030°12'0 0.0
2018-Feb-13 07:00N 59°53' E 030°12'0 0.0
2018-Feb-13 06:30N 59°53' E 030°12'0 0.0
2018-Feb-13 06:00N 59°53' E 030°12'0 0.0
2018-Feb-13 05:30N 59°53' E 030°12'0 0.0
2018-Feb-13 05:00N 59°53' E 030°12'0 0.0
2018-Feb-13 04:30N 59°53' E 030°12'0 0.0
2018-Feb-13 04:00N 59°53' E 030°12'0 0.2
2018-Feb-13 03:30N 59°53' E 030°12'2 3.9
2018-Feb-13 03:00N 59°54' E 030°08'4 9.0
2018-Feb-13 02:30N 59°55' E 030°00'611.5
2018-Feb-13 02:01N 59°57' E 029°49'5 9.9
2018-Feb-13 01:28N 59°60' E 029°40'612.4
2018-Feb-13 01:00N 60°01' E 029°29'5 9.1
2018-Feb-13 00:30N 60°02' E 029°20'5 9.2
2018-Feb-13 00:00N 60°02' E 029°10'4 7.2
2018-Feb-12 23:30N 60°02' E 029°03'713.6
2018-Feb-12 23:01N 60°02' E 028°50'815.5
2018-Feb-12 22:30N 60°03' E 028°34'714.2
2018-Feb-12 22:01N 60°05' E 028°21'714.3
2018-Feb-12 21:30N 60°08' E 028°08'714.8
2018-Feb-12 21:01N 60°10' E 027°54'714.6
2018-Feb-12 20:31N 60°09' E 027°39'816.0
2018-Feb-12 20:00N 60°06' E 027°25'  

Dump ship's entire track history